PMDY

Details ICAO PMDY (MDY)
Name Midway Atoll
Region USA (Midway Island)
Timezone Pacific/Midway (UTC-11.0)
Plans Departing 65
Arriving 108
Stats Elevation 13 ft / 4 m (AMSL)
Location 28.201436° -177.381468°
Runways 1
Magnetic Variation 7.416° E
Sunrise 2017-12-16 18:36:04 UTC / 2017-12-16 07:36:04 Local
Sunset 2017-12-17 04:57:29 UTC / 2017-12-16 17:57:29 Local
Advertisement - Login to hide

Runways

ID Width Length Bearing (true) Bearing (mag) Surface Threshold Offset Overrun Length
06 200 ft / 61 m 7,897 ft / 2,407 m 68.49° 61.07° Asphalt 0 ft / 0 m 499 ft / 152 m
24 200 ft / 61 m 7,897 ft / 2,407 m 248.51° 241.09° Asphalt 0 ft / 0 m 135 ft / 41 m

Map

Weather


0- 5 10 15 20 25 30 35+ Temperature / ° C

Clouds and Precipitation
Forecast for 2017-12-16 18:00 UTC. Updated 10 minutes ago

Ground ~20,000 ft ~40,000 ft Winds

METAR

PMDY 161729Z AUTO 29009G15KT 260V330 10SM FEW009 BKN023 OVC055 22/21 A3008 RMK AO2

TAF

TAF PMDY 161120Z 1612/1712 19011KT P6SM SCT020 BKN035 FM161400 22014KT P6SM VCSH SCT020 BKN035 FM162300 36010KT 4SM SHRA BR BKN020 OVC030 FM170400 03015G25KT P6SM VCSH BKN020 BKN035

Frequencies

Recorded 118.32 MHz AWOS 3
Unicom 122.90 MHz CTAF
Warning: Do not use this data for real-world aviation or navigation. No guarantee of current accuracy is given.